VLI368 MMHO-MMTJ
Flight info
| Callsign | VLI368 |
|---|---|
| Flight time | 1h 20m |
| Altitude | 32000 |
| Route | OTUBO4B OTUBO UT18 TIJ |
| Aircraft | B733/M-SDE2E3FHIRW/S |
Departure
| Time | 2026-05-07 02:52 |
|---|---|
| Airport | General Ignacio L. Pesqueira International Airport (MMHO) |
Arrival
| Time | 2026-05-07 04:12 |
|---|---|
| Airport | General Abelardo L. Rodriguez International Airport (MMTJ) |
| Time | Latitude | Longitude | Altitude | Speed | Heading |
|---|---|---|---|---|---|
| 2026-05-07 02:52 | 28.99507 | -111.23270 | 6377 ft | 283 kts | 262° |
| 2026-05-07 02:52 | 28.99522 | -111.25542 | 6910 ft | 289 kts | 283° |
| 2026-05-07 02:53 | 29.00320 | -111.27647 | 7697 ft | 287 kts | 305° |
| 2026-05-07 02:53 | 29.01754 | -111.29188 | 8432 ft | 290 kts | 327° |
| 2026-05-07 02:53 | 29.03653 | -111.30036 | 9035 ft | 299 kts | 345° |
| 2026-05-07 02:53 | 29.05717 | -111.30488 | 9740 ft | 300 kts | 350° |
| 2026-05-07 02:54 | 29.07820 | -111.30595 | 10269 ft | 309 kts | 357° |
| 2026-05-07 02:54 | 29.09986 | -111.30527 | 10817 ft | 316 kts | 5° |
| 2026-05-07 02:54 | 29.12267 | -111.30174 | 10905 ft | 340 kts | 7° |
| 2026-05-07 02:54 | 29.14642 | -111.29616 | 11130 ft | 357 kts | 15° |
| 2026-05-07 02:55 | 29.17083 | -111.28869 | 11637 ft | 364 kts | 11° |
| 2026-05-07 02:55 | 29.19618 | -111.28686 | 12222 ft | 368 kts | 355° |
| 2026-05-07 02:55 | 29.22111 | -111.29275 | 12787 ft | 369 kts | 336° |
| 2026-05-07 02:55 | 29.24294 | -111.30808 | 13353 ft | 368 kts | 315° |
| 2026-05-07 02:56 | 29.25977 | -111.32969 | 13936 ft | 368 kts | 306° |
| 2026-05-07 02:56 | 29.27601 | -111.35279 | 14541 ft | 371 kts | 305° |
| 2026-05-07 02:56 | 29.29252 | -111.37598 | 15162 ft | 374 kts | 306° |
| 2026-05-07 02:56 | 29.30904 | -111.39906 | 15745 ft | 377 kts | 304° |
| 2026-05-07 02:57 | 29.32487 | -111.42324 | 16321 ft | 379 kts | 302° |
| 2026-05-07 02:57 | 29.34063 | -111.44762 | 16897 ft | 381 kts | 302° |
| 2026-05-07 02:57 | 29.35623 | -111.47162 | 17432 ft | 384 kts | 302° |
| 2026-05-07 02:57 | 29.37242 | -111.49642 | 17973 ft | 386 kts | 302° |
| 2026-05-07 02:58 | 29.38836 | -111.52097 | 18492 ft | 388 kts | 301° |
| 2026-05-07 02:58 | 29.40416 | -111.54645 | 19009 ft | 390 kts | 300° |
| 2026-05-07 02:58 | 29.41989 | -111.57188 | 19511 ft | 392 kts | 300° |
| 2026-05-07 02:58 | 29.43588 | -111.59772 | 20008 ft | 394 kts | 300° |
| 2026-05-07 02:59 | 29.45170 | -111.62324 | 20487 ft | 396 kts | 300° |
| 2026-05-07 02:59 | 29.46798 | -111.64951 | 20972 ft | 398 kts | 299° |
| 2026-05-07 02:59 | 29.48413 | -111.67567 | 21404 ft | 401 kts | 299° |
| 2026-05-07 02:59 | 29.50036 | -111.70197 | 21905 ft | 402 kts | 298° |
| 2026-05-07 03:00 | 29.51652 | -111.72813 | 22373 ft | 403 kts | 298° |
| 2026-05-07 03:00 | 29.53291 | -111.75466 | 22815 ft | 404 kts | 298° |
| 2026-05-07 03:00 | 29.54946 | -111.78146 | 23244 ft | 406 kts | 298° |
| 2026-05-07 03:00 | 29.56591 | -111.80810 | 23671 ft | 408 kts | 298° |
| 2026-05-07 03:01 | 29.58251 | -111.83501 | 24095 ft | 409 kts | 298° |
| 2026-05-07 03:01 | 29.59893 | -111.86164 | 24489 ft | 411 kts | 298° |
| 2026-05-07 03:01 | 29.61566 | -111.88879 | 24885 ft | 412 kts | 298° |
| 2026-05-07 03:01 | 29.63219 | -111.91564 | 25281 ft | 413 kts | 298° |
| 2026-05-07 03:02 | 29.64871 | -111.94247 | 25667 ft | 414 kts | 297° |
| 2026-05-07 03:02 | 29.66545 | -111.96970 | 26039 ft | 415 kts | 297° |
| 2026-05-07 03:02 | 29.68206 | -111.99693 | 26393 ft | 416 kts | 297° |
| 2026-05-07 03:02 | 29.69860 | -112.02411 | 26723 ft | 418 kts | 297° |
| 2026-05-07 03:03 | 29.71530 | -112.05143 | 27088 ft | 419 kts | 297° |
| 2026-05-07 03:03 | 29.73218 | -112.07900 | 27441 ft | 419 kts | 297° |
| 2026-05-07 03:03 | 29.74900 | -112.10646 | 27763 ft | 421 kts | 297° |
| 2026-05-07 03:03 | 29.76593 | -112.13410 | 28091 ft | 422 kts | 297° |
| 2026-05-07 03:04 | 29.78291 | -112.16180 | 28528 ft | 419 kts | 297° |
| 2026-05-07 03:04 | 29.80005 | -112.18980 | 29038 ft | 415 kts | 297° |
| 2026-05-07 03:04 | 29.81681 | -112.21719 | 29536 ft | 411 kts | 297° |
| 2026-05-07 03:04 | 29.83351 | -112.24452 | 29992 ft | 407 kts | 296° |
| 2026-05-07 03:05 | 29.84985 | -112.27129 | 30380 ft | 405 kts | 296° |
| 2026-05-07 03:05 | 29.86602 | -112.29779 | 30753 ft | 403 kts | 296° |
| 2026-05-07 03:05 | 29.88230 | -112.32449 | 31130 ft | 401 kts | 296° |
| 2026-05-07 03:05 | 29.89851 | -112.35108 | 31517 ft | 398 kts | 296° |
| 2026-05-07 03:06 | 29.91444 | -112.37723 | 31867 ft | 396 kts | 296° |
| 2026-05-07 03:06 | 29.93029 | -112.40331 | 32038 ft | 398 kts | 296° |
| 2026-05-07 03:06 | 29.96249 | -112.45630 | 32061 ft | 399 kts | 296° |
| 2026-05-07 03:07 | 29.99439 | -112.50881 | 32044 ft | 398 kts | 296° |
| 2026-05-07 03:07 | 30.02631 | -112.56144 | 32045 ft | 397 kts | 296° |
| 2026-05-07 03:08 | 30.05819 | -112.61408 | 32047 ft | 397 kts | 296° |
| 2026-05-07 03:08 | 30.09028 | -112.66718 | 32019 ft | 398 kts | 296° |
| 2026-05-07 03:09 | 30.12196 | -112.71950 | 32039 ft | 397 kts | 296° |
| 2026-05-07 03:09 | 30.15369 | -112.77190 | 32046 ft | 398 kts | 296° |
| 2026-05-07 03:10 | 30.18558 | -112.82481 | 32045 ft | 398 kts | 295° |
| 2026-05-07 03:10 | 30.21726 | -112.87744 | 32042 ft | 399 kts | 295° |
| 2026-05-07 03:11 | 30.24896 | -112.93019 | 32043 ft | 401 kts | 295° |
| 2026-05-07 03:11 | 30.28112 | -112.98379 | 32043 ft | 404 kts | 294° |
| 2026-05-07 03:12 | 30.31325 | -113.03741 | 32050 ft | 407 kts | 294° |
| 2026-05-07 03:12 | 30.34560 | -113.09141 | 32041 ft | 406 kts | 294° |
| 2026-05-07 03:13 | 30.37781 | -113.14529 | 32024 ft | 406 kts | 294° |
| 2026-05-07 03:13 | 30.41027 | -113.19968 | 32007 ft | 407 kts | 294° |
| 2026-05-07 03:14 | 30.44200 | -113.25288 | 31980 ft | 406 kts | 294° |
| 2026-05-07 03:15 | 30.49067 | -113.33468 | 31971 ft | 407 kts | 294° |
| 2026-05-07 03:15 | 30.52296 | -113.38902 | 31978 ft | 406 kts | 294° |
| 2026-05-07 03:16 | 30.55496 | -113.44296 | 31978 ft | 407 kts | 294° |
| 2026-05-07 03:16 | 30.58708 | -113.49715 | 31981 ft | 406 kts | 294° |
| 2026-05-07 03:17 | 30.61932 | -113.55165 | 31984 ft | 406 kts | 294° |
| 2026-05-07 03:17 | 30.65174 | -113.60651 | 31983 ft | 406 kts | 294° |
| 2026-05-07 03:18 | 30.68373 | -113.66071 | 31961 ft | 405 kts | 293° |
| 2026-05-07 03:18 | 30.71574 | -113.71519 | 31979 ft | 405 kts | 293° |
| 2026-05-07 03:19 | 30.74754 | -113.76926 | 31984 ft | 406 kts | 293° |
| 2026-05-07 03:19 | 30.77935 | -113.82338 | 31982 ft | 404 kts | 293° |
| 2026-05-07 03:20 | 30.81121 | -113.87770 | 31980 ft | 406 kts | 294° |
| 2026-05-07 03:20 | 30.84310 | -113.93209 | 31986 ft | 405 kts | 293° |
| 2026-05-07 03:21 | 30.87480 | -113.98624 | 31980 ft | 405 kts | 294° |
| 2026-05-07 03:21 | 30.90653 | -114.04054 | 31980 ft | 407 kts | 294° |
| 2026-05-07 03:22 | 30.93865 | -114.09560 | 31979 ft | 410 kts | 294° |
| 2026-05-07 03:22 | 30.97083 | -114.15082 | 31986 ft | 412 kts | 294° |
| 2026-05-07 03:23 | 31.00305 | -114.20615 | 31977 ft | 415 kts | 294° |
| 2026-05-07 03:23 | 31.03579 | -114.26250 | 31979 ft | 417 kts | 295° |
| 2026-05-07 03:24 | 31.06838 | -114.31864 | 31986 ft | 419 kts | 295° |
| 2026-05-07 03:24 | 31.09985 | -114.37547 | 31995 ft | 415 kts | 294° |
| 2026-05-07 03:25 | 31.13218 | -114.43191 | 31971 ft | 414 kts | 295° |
| 2026-05-07 03:25 | 31.16457 | -114.48796 | 31983 ft | 415 kts | 295° |
| 2026-05-07 03:26 | 31.19688 | -114.54396 | 31979 ft | 414 kts | 295° |
| 2026-05-07 03:26 | 31.22933 | -114.60030 | 31983 ft | 414 kts | 295° |
| 2026-05-07 03:27 | 31.26173 | -114.65662 | 31977 ft | 415 kts | 294° |
| 2026-05-07 03:27 | 31.29411 | -114.71313 | 31981 ft | 414 kts | 294° |
| 2026-05-07 03:28 | 31.32663 | -114.76990 | 31987 ft | 415 kts | 294° |
| 2026-05-07 03:28 | 31.35887 | -114.82618 | 31979 ft | 413 kts | 294° |
| 2026-05-07 03:29 | 31.39120 | -114.88272 | 31981 ft | 414 kts | 294° |
| 2026-05-07 03:29 | 31.42379 | -114.93978 | 31986 ft | 413 kts | 294° |
| 2026-05-07 03:30 | 31.45577 | -114.99588 | 31974 ft | 415 kts | 294° |
| 2026-05-07 03:30 | 31.48842 | -115.05324 | 31979 ft | 419 kts | 294° |
| 2026-05-07 03:31 | 31.52110 | -115.11073 | 31984 ft | 422 kts | 295° |
| 2026-05-07 03:31 | 31.55377 | -115.16827 | 31987 ft | 424 kts | 295° |
| 2026-05-07 03:32 | 31.58670 | -115.22637 | 31980 ft | 426 kts | 295° |
| 2026-05-07 03:32 | 31.61951 | -115.28436 | 31709 ft | 430 kts | 295° |
| 2026-05-07 03:32 | 31.63614 | -115.31376 | 31219 ft | 431 kts | 295° |
| 2026-05-07 03:33 | 31.65259 | -115.34345 | 30715 ft | 431 kts | 295° |
| 2026-05-07 03:33 | 31.66900 | -115.37312 | 30215 ft | 432 kts | 295° |
| 2026-05-07 03:33 | 31.68566 | -115.40293 | 29718 ft | 436 kts | 295° |
| 2026-05-07 03:33 | 31.70246 | -115.43283 | 29220 ft | 438 kts | 296° |
| 2026-05-07 03:34 | 31.71941 | -115.46298 | 28719 ft | 441 kts | 296° |
| 2026-05-07 03:34 | 31.73663 | -115.49361 | 28219 ft | 446 kts | 296° |
| 2026-05-07 03:34 | 31.75408 | -115.52464 | 27713 ft | 447 kts | 297° |
| 2026-05-07 03:34 | 31.77156 | -115.55573 | 27161 ft | 451 kts | 297° |
| 2026-05-07 03:35 | 31.78899 | -115.58678 | 26562 ft | 453 kts | 297° |
| 2026-05-07 03:35 | 31.80649 | -115.61797 | 25964 ft | 456 kts | 298° |
| 2026-05-07 03:35 | 31.82423 | -115.64963 | 25356 ft | 457 kts | 298° |
| 2026-05-07 03:35 | 31.84219 | -115.68176 | 24709 ft | 457 kts | 297° |
| 2026-05-07 03:36 | 31.85949 | -115.71274 | 24108 ft | 453 kts | 298° |
| 2026-05-07 03:36 | 31.87712 | -115.74429 | 23493 ft | 450 kts | 298° |
| 2026-05-07 03:36 | 31.89476 | -115.77589 | 22872 ft | 446 kts | 298° |
| 2026-05-07 03:36 | 31.91213 | -115.80714 | 22255 ft | 442 kts | 298° |
| 2026-05-07 03:37 | 31.92925 | -115.83820 | 21639 ft | 439 kts | 299° |
| 2026-05-07 03:37 | 31.94587 | -115.86820 | 21036 ft | 434 kts | 299° |
| 2026-05-07 03:37 | 31.96249 | -115.89812 | 20424 ft | 427 kts | 300° |
| 2026-05-07 03:37 | 31.97885 | -115.92759 | 19814 ft | 421 kts | 300° |
| 2026-05-07 03:38 | 31.99511 | -115.95686 | 19198 ft | 415 kts | 300° |
| 2026-05-07 03:38 | 32.01072 | -115.98498 | 18599 ft | 410 kts | 300° |
| 2026-05-07 03:38 | 32.02635 | -116.01318 | 17988 ft | 402 kts | 301° |
| 2026-05-07 03:38 | 32.04142 | -116.04035 | 17386 ft | 394 kts | 301° |
| 2026-05-07 03:39 | 32.05649 | -116.06757 | 16774 ft | 386 kts | 301° |
| 2026-05-07 03:39 | 32.07092 | -116.09365 | 16177 ft | 379 kts | 301° |
| 2026-05-07 03:39 | 32.08532 | -116.11969 | 15570 ft | 372 kts | 302° |
| 2026-05-07 03:39 | 32.09943 | -116.14523 | 14966 ft | 366 kts | 302° |
| 2026-05-07 03:40 | 32.11333 | -116.17026 | 14339 ft | 361 kts | 302° |
| 2026-05-07 03:40 | 32.12716 | -116.19514 | 13733 ft | 355 kts | 302° |
| 2026-05-07 03:40 | 32.14068 | -116.21956 | 13128 ft | 350 kts | 302° |
| 2026-05-07 03:40 | 32.15382 | -116.24336 | 12530 ft | 345 kts | 303° |
| 2026-05-07 03:41 | 32.16680 | -116.26689 | 11931 ft | 340 kts | 303° |
| 2026-05-07 03:41 | 32.17974 | -116.29038 | 11325 ft | 335 kts | 302° |
| 2026-05-07 03:41 | 32.19266 | -116.31385 | 10761 ft | 329 kts | 302° |
| 2026-05-07 03:41 | 32.20484 | -116.33598 | 10530 ft | 312 kts | 302° |
| 2026-05-07 03:42 | 32.21648 | -116.35714 | 10314 ft | 298 kts | 302° |
| 2026-05-07 03:42 | 32.22767 | -116.37749 | 10113 ft | 294 kts | 302° |
| 2026-05-07 03:42 | 32.23894 | -116.39803 | 9857 ft | 295 kts | 302° |
| 2026-05-07 03:42 | 32.25037 | -116.41886 | 9364 ft | 297 kts | 302° |
| 2026-05-07 03:43 | 32.26153 | -116.43922 | 9089 ft | 288 kts | 301° |
| 2026-05-07 03:43 | 32.27235 | -116.45903 | 9044 ft | 282 kts | 301° |
| 2026-05-07 03:43 | 32.28342 | -116.47882 | 8899 ft | 287 kts | 302° |
| 2026-05-07 03:43 | 32.29445 | -116.49869 | 8556 ft | 284 kts | 301° |
| 2026-05-07 03:44 | 32.30524 | -116.51897 | 8194 ft | 280 kts | 301° |
| 2026-05-07 03:44 | 32.31561 | -116.53844 | 7843 ft | 278 kts | 301° |
| 2026-05-07 03:44 | 32.32597 | -116.55781 | 7491 ft | 276 kts | 301° |
| 2026-05-07 03:44 | 32.33632 | -116.57711 | 7139 ft | 274 kts | 301° |
| 2026-05-07 03:45 | 32.34663 | -116.59627 | 6785 ft | 272 kts | 301° |
| 2026-05-07 03:45 | 32.35692 | -116.61534 | 6426 ft | 268 kts | 301° |
| 2026-05-07 03:45 | 32.36687 | -116.63373 | 6109 ft | 262 kts | 301° |
| 2026-05-07 03:45 | 32.37677 | -116.65194 | 5974 ft | 248 kts | 300° |
| 2026-05-07 03:46 | 32.38738 | -116.66763 | 5895 ft | 235 kts | 315° |
| 2026-05-07 03:46 | 32.39968 | -116.68035 | 5635 ft | 229 kts | 317° |
| 2026-05-07 03:46 | 32.41225 | -116.69242 | 5344 ft | 223 kts | 318° |
| 2026-05-07 03:46 | 32.42421 | -116.70396 | 5073 ft | 215 kts | 318° |
| 2026-05-07 03:47 | 32.43574 | -116.71503 | 4935 ft | 198 kts | 318° |
| 2026-05-07 03:47 | 32.44574 | -116.72498 | 4982 ft | 180 kts | 308° |
| 2026-05-07 03:47 | 32.45261 | -116.73772 | 4965 ft | 179 kts | 295° |
| 2026-05-07 03:47 | 32.45869 | -116.75073 | 4643 ft | 174 kts | 295° |
| 2026-05-07 03:48 | 32.46451 | -116.76319 | 4341 ft | 162 kts | 295° |
| 2026-05-07 03:48 | 32.46988 | -116.77452 | 4068 ft | 147 kts | 295° |
| 2026-05-07 03:48 | 32.47502 | -116.78530 | 3724 ft | 148 kts | 295° |
| 2026-05-07 03:48 | 32.48015 | -116.79607 | 3416 ft | 143 kts | 295° |
| 2026-05-07 03:49 | 32.48514 | -116.80653 | 3298 ft | 141 kts | 295° |
| 2026-05-07 03:49 | 32.49018 | -116.81705 | 3332 ft | 144 kts | 296° |
| 2026-05-07 03:49 | 32.49538 | -116.82771 | 3160 ft | 147 kts | 296° |
| 2026-05-07 03:49 | 32.50080 | -116.83813 | 2908 ft | 143 kts | 298° |
| 2026-05-07 03:50 | 32.50646 | -116.84825 | 2798 ft | 143 kts | 301° |
| 2026-05-07 03:50 | 32.51216 | -116.85846 | 2647 ft | 144 kts | 299° |
| 2026-05-07 03:50 | 32.51780 | -116.86855 | 2456 ft | 143 kts | 300° |
| 2026-05-07 03:50 | 32.52360 | -116.87862 | 2215 ft | 144 kts | 301° |
| 2026-05-07 03:51 | 32.52889 | -116.88899 | 1927 ft | 141 kts | 290° |
| 2026-05-07 03:51 | 32.53211 | -116.90006 | 1555 ft | 136 kts | 283° |
| 2026-05-07 03:51 | 32.53378 | -116.91134 | 1260 ft | 132 kts | 275° |
| 2026-05-07 03:51 | 32.53504 | -116.92267 | 1068 ft | 133 kts | 277° |
| 2026-05-07 03:52 | 32.53642 | -116.93388 | 889 ft | 133 kts | 276° |
| 2026-05-07 03:52 | 32.53777 | -116.94511 | 693 ft | 134 kts | 278° |
| 2026-05-07 03:52 | 32.53927 | -116.95654 | 516 ft | 134 kts | 280° |
| 2026-05-07 03:52 | 32.54079 | -116.96783 | 754 ft | 145 kts | 277° |
| 2026-05-07 03:53 | 32.54172 | -116.98082 | 1443 ft | 170 kts | 262° |
| 2026-05-07 03:53 | 32.53672 | -116.99432 | 2432 ft | 182 kts | 229° |
| 2026-05-07 03:53 | 32.52572 | -117.00297 | 3361 ft | 198 kts | 200° |
| 2026-05-07 03:53 | 32.51148 | -117.00444 | 4256 ft | 218 kts | 173° |
| 2026-05-07 03:54 | 32.49626 | -116.99796 | 4977 ft | 232 kts | 155° |
| 2026-05-07 03:54 | 32.48085 | -116.99002 | 5603 ft | 235 kts | 165° |
| 2026-05-07 03:54 | 32.46452 | -116.98450 | 6082 ft | 247 kts | 165° |
| 2026-05-07 03:54 | 32.44714 | -116.97826 | 6509 ft | 262 kts | 163° |
| 2026-05-07 03:55 | 32.42936 | -116.97134 | 6443 ft | 265 kts | 164° |
| 2026-05-07 03:55 | 32.41110 | -116.96530 | 6309 ft | 267 kts | 168° |
| 2026-05-07 03:55 | 32.39254 | -116.96245 | 6172 ft | 264 kts | 179° |
| 2026-05-07 03:55 | 32.37372 | -116.96234 | 5955 ft | 265 kts | 181° |
| 2026-05-07 03:56 | 32.35503 | -116.96223 | 5918 ft | 260 kts | 181° |
| 2026-05-07 03:56 | 32.33667 | -116.96233 | 5910 ft | 260 kts | 181° |
| 2026-05-07 03:56 | 32.31826 | -116.96246 | 5961 ft | 261 kts | 181° |
| 2026-05-07 03:56 | 32.29968 | -116.96261 | 6009 ft | 262 kts | 181° |
| 2026-05-07 03:57 | 32.28151 | -116.96462 | 5995 ft | 261 kts | 198° |
| 2026-05-07 03:57 | 32.26597 | -116.97601 | 5999 ft | 261 kts | 224° |
| 2026-05-07 03:57 | 32.25332 | -116.99182 | 5998 ft | 262 kts | 224° |
| 2026-05-07 03:57 | 32.23820 | -117.00336 | 5997 ft | 259 kts | 198° |
| 2026-05-07 03:58 | 32.22023 | -117.00500 | 5992 ft | 262 kts | 170° |
| 2026-05-07 03:58 | 32.20331 | -116.99596 | 5992 ft | 267 kts | 142° |
| 2026-05-07 03:58 | 32.19198 | -116.97838 | 5993 ft | 272 kts | 115° |
| 2026-05-07 03:58 | 32.18883 | -116.95553 | 5993 ft | 278 kts | 86° |
| 2026-05-07 03:59 | 32.19510 | -116.93346 | 5994 ft | 282 kts | 58° |
| 2026-05-07 03:59 | 32.20942 | -116.91699 | 5994 ft | 284 kts | 30° |
| 2026-05-07 03:59 | 32.22850 | -116.90997 | 5996 ft | 284 kts | 2° |
| 2026-05-07 03:59 | 32.24784 | -116.91384 | 6033 ft | 273 kts | 334° |
| 2026-05-07 04:00 | 32.26544 | -116.92393 | 6026 ft | 272 kts | 331° |
| 2026-05-07 04:00 | 32.28274 | -116.93432 | 6008 ft | 270 kts | 330° |
| 2026-05-07 04:00 | 32.29743 | -116.94829 | 5994 ft | 264 kts | 303° |
| 2026-05-07 04:00 | 32.30456 | -116.96799 | 5994 ft | 259 kts | 276° |
| 2026-05-07 04:01 | 32.30652 | -116.98973 | 6000 ft | 258 kts | 272° |
| 2026-05-07 04:01 | 32.30439 | -117.01089 | 5997 ft | 252 kts | 245° |
| 2026-05-07 04:01 | 32.29405 | -117.02757 | 5994 ft | 249 kts | 217° |
| 2026-05-07 04:01 | 32.27808 | -117.03576 | 5993 ft | 249 kts | 188° |
| 2026-05-07 04:02 | 32.26053 | -117.03649 | 5998 ft | 251 kts | 180° |
| 2026-05-07 04:02 | 32.24342 | -117.03162 | 5992 ft | 254 kts | 153° |
| 2026-05-07 04:02 | 32.23041 | -117.01717 | 5989 ft | 260 kts | 123° |
| 2026-05-07 04:02 | 32.22489 | -116.99637 | 5990 ft | 266 kts | 94° |
| 2026-05-07 04:03 | 32.22872 | -116.97422 | 5993 ft | 271 kts | 64° |
| 2026-05-07 04:03 | 32.24089 | -116.95686 | 5995 ft | 274 kts | 36° |
| 2026-05-07 04:03 | 32.25886 | -116.94782 | 5991 ft | 274 kts | 7° |
| 2026-05-07 04:03 | 32.27787 | -116.94955 | 6003 ft | 271 kts | 342° |
| 2026-05-07 04:04 | 32.29717 | -116.95321 | 5999 ft | 273 kts | 359° |
| 2026-05-07 04:04 | 32.31651 | -116.95238 | 5998 ft | 274 kts | 7° |
| 2026-05-07 04:04 | 32.33471 | -116.94438 | 5997 ft | 273 kts | 36° |
| 2026-05-07 04:04 | 32.34748 | -116.92728 | 5998 ft | 270 kts | 66° |
| 2026-05-07 04:05 | 32.35178 | -116.90569 | 6001 ft | 265 kts | 95° |
| 2026-05-07 04:05 | 32.34858 | -116.88407 | 6009 ft | 262 kts | 106° |
| 2026-05-07 04:05 | 32.34426 | -116.86288 | 6004 ft | 262 kts | 104° |
| 2026-05-07 04:05 | 32.34405 | -116.84103 | 5994 ft | 266 kts | 77° |
| 2026-05-07 04:06 | 32.35276 | -116.82046 | 6007 ft | 270 kts | 57° |
| 2026-05-07 04:06 | 32.36381 | -116.80205 | 5900 ft | 273 kts | 53° |
| 2026-05-07 04:06 | 32.37682 | -116.78551 | 5631 ft | 273 kts | 46° |
| 2026-05-07 04:06 | 32.39053 | -116.76936 | 5346 ft | 270 kts | 43° |
| 2026-05-07 04:07 | 32.40579 | -116.75584 | 5076 ft | 266 kts | 35° |
| 2026-05-07 04:07 | 32.42106 | -116.74367 | 4821 ft | 255 kts | 27° |
| 2026-05-07 04:07 | 32.43804 | -116.73865 | 4546 ft | 243 kts | 357° |
| 2026-05-07 04:07 | 32.45416 | -116.74413 | 4314 ft | 225 kts | 322° |
| 2026-05-07 04:08 | 32.46402 | -116.75777 | 4221 ft | 212 kts | 296° |
| 2026-05-07 04:08 | 32.47121 | -116.77340 | 4141 ft | 200 kts | 294° |
| 2026-05-07 04:08 | 32.47733 | -116.78834 | 3829 ft | 195 kts | 291° |
| 2026-05-07 04:08 | 32.48288 | -116.80313 | 3471 ft | 192 kts | 290° |
| 2026-05-07 04:09 | 32.48817 | -116.81776 | 3199 ft | 181 kts | 290° |
| 2026-05-07 04:09 | 32.49351 | -116.83106 | 3035 ft | 162 kts | 294° |
| 2026-05-07 04:09 | 32.49885 | -116.84315 | 2867 ft | 154 kts | 294° |
| 2026-05-07 04:09 | 32.50389 | -116.85424 | 2678 ft | 143 kts | 295° |
| 2026-05-07 04:10 | 32.50894 | -116.86475 | 2463 ft | 142 kts | 296° |
| 2026-05-07 04:10 | 32.51400 | -116.87503 | 2258 ft | 140 kts | 297° |
| 2026-05-07 04:10 | 32.51908 | -116.88522 | 2046 ft | 139 kts | 297° |
| 2026-05-07 04:10 | 32.52430 | -116.89529 | 1783 ft | 140 kts | 298° |
| 2026-05-07 04:11 | 32.52927 | -116.90527 | 1485 ft | 135 kts | 296° |
| 2026-05-07 04:11 | 32.53328 | -116.91563 | 1180 ft | 131 kts | 286° |
| 2026-05-07 04:11 | 32.53533 | -116.92641 | 1002 ft | 133 kts | 277° |
| 2026-05-07 04:11 | 32.53675 | -116.93777 | 817 ft | 134 kts | 277° |
| 2026-05-07 04:12 | 32.53830 | -116.94903 | 615 ft | 131 kts | 278° |
| 2026-05-07 04:12 | 32.53970 | -116.95974 | 496 ft | 123 kts | 278° |
| 2026-05-07 04:12 | 32.54085 | -116.96838 | 495 ft | 76 kts | 278° |
| 2026-05-07 04:12 | 32.54146 | -116.97310 | 495 ft | 34 kts | 278° |
| 2026-05-07 04:13 | 32.54168 | -116.97475 | 495 ft | 14 kts | 279° |
| 2026-05-07 04:13 | 32.54184 | -116.97579 | 495 ft | 12 kts | 287° |
| 2026-05-07 04:13 | 32.54236 | -116.97663 | 495 ft | 5 kts | 315° |
| 2026-05-07 04:13 | 32.54269 | -116.97704 | 495 ft | 7 kts | 311° |
| 2026-05-07 04:14 | 32.54308 | -116.97757 | 495 ft | 8 kts | 311° |
| 2026-05-07 04:14 | 32.54354 | -116.97790 | 495 ft | 8 kts | 349° |
| 2026-05-07 04:14 | 32.54395 | -116.97788 | 495 ft | 5 kts | 14° |
| 2026-05-07 04:14 | 32.54417 | -116.97740 | 495 ft | 7 kts | 99° |
| 2026-05-07 04:15 | 32.54410 | -116.97680 | 495 ft | 7 kts | 98° |
| 2026-05-07 04:15 | 32.54410 | -116.97611 | 495 ft | 9 kts | 64° |
| 2026-05-07 04:15 | 32.54463 | -116.97586 | 495 ft | 6 kts | 7° |
| 2026-05-07 04:15 | 32.54507 | -116.97598 | 495 ft | 8 kts | 300° |
| 2026-05-07 04:16 | 32.54510 | -116.97634 | 495 ft | 2 kts | 277° |
| 2026-05-07 04:16 | 32.54512 | -116.97647 | 495 ft | 0 kts | 279° |
| 2026-05-07 04:16 | 32.54513 | -116.97656 | 495 ft | 0 kts | 279° |